sensor_id;sensor_type;location;lat;lon;timestamp;P1;durP1;ratioP1;P2;durP2;ratioP2
49828;SDS011;35723;51.194;5.112;2023-05-10T00:00:14;25.83;;;14.60;;
49828;SDS011;35723;51.194;5.112;2023-05-10T00:02:40;26.23;;;15.43;;
49828;SDS011;35723;51.194;5.112;2023-05-10T00:05:06;25.20;;;14.73;;
49828;SDS011;35723;51.194;5.112;2023-05-10T00:07:33;26.63;;;15.27;;
49828;SDS011;35723;51.194;5.112;2023-05-10T00:09:59;26.67;;;15.63;;
49828;SDS011;35723;51.194;5.112;2023-05-10T00:12:24;27.98;;;16.10;;
49828;SDS011;35723;51.194;5.112;2023-05-10T00:14:50;28.85;;;16.75;;
49828;SDS011;35723;51.194;5.112;2023-05-10T00:17:15;28.65;;;16.40;;
49828;SDS011;35723;51.194;5.112;2023-05-10T00:19:41;30.55;;;16.63;;
49828;SDS011;35723;51.194;5.112;2023-05-10T00:22:07;31.65;;;17.90;;
49828;SDS011;35723;51.194;5.112;2023-05-10T00:24:32;30.92;;;17.80;;
49828;SDS011;35723;51.194;5.112;2023-05-10T00:26:58;33.88;;;18.50;;
49828;SDS011;35723;51.194;5.112;2023-05-10T00:29:23;30.50;;;17.65;;
49828;SDS011;35723;51.194;5.112;2023-05-10T00:31:49;28.73;;;17.48;;
49828;SDS011;35723;51.194;5.112;2023-05-10T00:34:15;29.98;;;17.30;;
49828;SDS011;35723;51.194;5.112;2023-05-10T00:36:40;30.05;;;17.15;;
49828;SDS011;35723;51.194;5.112;2023-05-10T00:39:06;29.80;;;17.13;;
49828;SDS011;35723;51.194;5.112;2023-05-10T00:41:32;29.65;;;16.55;;
49828;SDS011;35723;51.194;5.112;2023-05-10T00:43:58;30.95;;;16.90;;
49828;SDS011;35723;51.194;5.112;2023-05-10T00:46:24;27.63;;;16.15;;
49828;SDS011;35723;51.194;5.112;2023-05-10T00:48:50;29.55;;;16.27;;
49828;SDS011;35723;51.194;5.112;2023-05-10T00:51:17;26.95;;;14.77;;
49828;SDS011;35723;51.194;5.112;2023-05-10T00:53:44;30.40;;;15.85;;
49828;SDS011;35723;51.194;5.112;2023-05-10T00:56:11;27.45;;;14.48;;
49828;SDS011;35723;51.194;5.112;2023-05-10T00:58:37;28.48;;;14.75;;
49828;SDS011;35723;51.194;5.112;2023-05-10T01:01:04;26.95;;;14.30;;
49828;SDS011;35723;51.194;5.112;2023-05-10T01:03:30;28.77;;;14.75;;
49828;SDS011;35723;51.194;5.112;2023-05-10T01:05:57;29.02;;;14.07;;
49828;SDS011;35723;51.194;5.112;2023-05-10T01:08:23;26.63;;;14.05;;
49828;SDS011;35723;51.194;5.112;2023-05-10T01:10:49;31.77;;;15.15;;
49828;SDS011;35723;51.194;5.112;2023-05-10T01:13:31;28.15;;;14.77;;
49828;SDS011;35723;51.194;5.112;2023-05-10T01:16:01;30.92;;;14.95;;
49828;SDS011;35723;51.194;5.112;2023-05-10T01:18:28;30.55;;;15.38;;
49828;SDS011;35723;51.194;5.112;2023-05-10T01:21:02;30.33;;;15.00;;
49828;SDS011;35723;51.194;5.112;2023-05-10T01:37:25;31.20;;;14.32;;
49828;SDS011;35723;51.194;5.112;2023-05-10T01:40:03;29.10;;;14.88;;
49828;SDS011;35723;51.194;5.112;2023-05-10T01:42:49;28.55;;;13.88;;
49828;SDS011;35723;51.194;5.112;2023-05-10T01:45:27;27.45;;;14.35;;
49828;SDS011;35723;51.194;5.112;2023-05-10T01:47:57;26.63;;;13.23;;
49828;SDS011;35723;51.194;5.112;2023-05-10T01:50:32;33.38;;;14.05;;
49828;SDS011;35723;51.194;5.112;2023-05-10T01:53:00;30.80;;;14.77;;
49828;SDS011;35723;51.194;5.112;2023-05-10T01:55:32;33.25;;;15.27;;
49828;SDS011;35723;51.194;5.112;2023-05-10T01:58:07;33.72;;;16.27;;
49828;SDS011;35723;51.194;5.112;2023-05-10T02:00:42;37.22;;;15.73;;
49828;SDS011;35723;51.194;5.112;2023-05-10T02:03:09;37.33;;;16.77;;
49828;SDS011;35723;51.194;5.112;2023-05-10T02:05:36;34.45;;;16.92;;
49828;SDS011;35723;51.194;5.112;2023-05-10T02:08:05;39.13;;;17.98;;
49828;SDS011;35723;51.194;5.112;2023-05-10T02:10:32;35.60;;;18.02;;
49828;SDS011;35723;51.194;5.112;2023-05-10T02:13:00;38.28;;;18.33;;
49828;SDS011;35723;51.194;5.112;2023-05-10T02:15:27;44.10;;;19.00;;
49828;SDS011;35723;51.194;5.112;2023-05-10T02:17:55;38.45;;;18.35;;
49828;SDS011;35723;51.194;5.112;2023-05-10T02:20:22;39.20;;;19.08;;
49828;SDS011;35723;51.194;5.112;2023-05-10T02:22:50;39.72;;;18.23;;
49828;SDS011;35723;51.194;5.112;2023-05-10T02:25:19;41.17;;;19.35;;
49828;SDS011;35723;51.194;5.112;2023-05-10T02:27:46;39.70;;;18.27;;
49828;SDS011;35723;51.194;5.112;2023-05-10T02:30:13;38.20;;;18.65;;
49828;SDS011;35723;51.194;5.112;2023-05-10T02:32:39;42.22;;;20.30;;
49828;SDS011;35723;51.194;5.112;2023-05-10T02:35:06;39.67;;;19.10;;
49828;SDS011;35723;51.194;5.112;2023-05-10T02:37:33;43.75;;;20.27;;
49828;SDS011;35723;51.194;5.112;2023-05-10T02:40:00;43.13;;;19.52;;
49828;SDS011;35723;51.194;5.112;2023-05-10T02:42:28;41.22;;;19.88;;
49828;SDS011;35723;51.194;5.112;2023-05-10T02:45:00;44.85;;;20.25;;
49828;SDS011;35723;51.194;5.112;2023-05-10T02:47:28;39.57;;;19.50;;
49828;SDS011;35723;51.194;5.112;2023-05-10T02:49:54;46.47;;;21.38;;
49828;SDS011;35723;51.194;5.112;2023-05-10T02:52:25;44.95;;;19.55;;
49828;SDS011;35723;51.194;5.112;2023-05-10T02:54:58;43.10;;;20.02;;
49828;SDS011;35723;51.194;5.112;2023-05-10T02:57:28;43.33;;;19.65;;
49828;SDS011;35723;51.194;5.112;2023-05-10T02:59:57;39.67;;;18.67;;
49828;SDS011;35723;51.194;5.112;2023-05-10T03:02:23;40.13;;;19.23;;
49828;SDS011;35723;51.194;5.112;2023-05-10T03:04:49;39.10;;;18.75;;
49828;SDS011;35723;51.194;5.112;2023-05-10T03:07:15;42.13;;;19.73;;
49828;SDS011;35723;51.194;5.112;2023-05-10T03:09:41;40.53;;;19.52;;
49828;SDS011;35723;51.194;5.112;2023-05-10T03:12:10;40.25;;;18.30;;
49828;SDS011;35723;51.194;5.112;2023-05-10T03:20:43;37.80;;;18.20;;
49828;SDS011;35723;51.194;5.112;2023-05-10T03:23:34;37.90;;;18.58;;
49828;SDS011;35723;51.194;5.112;2023-05-10T03:26:08;40.75;;;18.38;;
49828;SDS011;35723;51.194;5.112;2023-05-10T03:28:34;40.15;;;17.92;;
49828;SDS011;35723;51.194;5.112;2023-05-10T03:31:02;39.50;;;18.08;;
49828;SDS011;35723;51.194;5.112;2023-05-10T03:33:30;40.40;;;18.45;;
49828;SDS011;35723;51.194;5.112;2023-05-10T03:35:56;36.95;;;18.15;;
49828;SDS011;35723;51.194;5.112;2023-05-10T03:38:22;36.33;;;18.13;;
49828;SDS011;35723;51.194;5.112;2023-05-10T03:40:48;33.83;;;17.42;;
49828;SDS011;35723;51.194;5.112;2023-05-10T03:43:13;35.20;;;18.45;;
49828;SDS011;35723;51.194;5.112;2023-05-10T03:45:39;36.33;;;18.60;;
49828;SDS011;35723;51.194;5.112;2023-05-10T03:48:05;32.08;;;17.38;;
49828;SDS011;35723;51.194;5.112;2023-05-10T03:50:31;37.78;;;18.27;;
49828;SDS011;35723;51.194;5.112;2023-05-10T03:52:56;33.53;;;17.00;;
49828;SDS011;35723;51.194;5.112;2023-05-10T03:55:22;34.10;;;17.45;;
49828;SDS011;35723;51.194;5.112;2023-05-10T03:57:48;32.13;;;16.63;;
49828;SDS011;35723;51.194;5.112;2023-05-10T04:00:18;31.98;;;16.20;;
49828;SDS011;35723;51.194;5.112;2023-05-10T04:02:44;36.33;;;18.00;;
49828;SDS011;35723;51.194;5.112;2023-05-10T04:05:10;32.15;;;16.60;;
49828;SDS011;35723;51.194;5.112;2023-05-10T04:07:35;32.95;;;17.25;;
49828;SDS011;35723;51.194;5.112;2023-05-10T04:10:02;35.75;;;17.55;;
49828;SDS011;35723;51.194;5.112;2023-05-10T04:12:28;31.35;;;16.30;;
49828;SDS011;35723;51.194;5.112;2023-05-10T04:14:54;33.55;;;17.15;;
49828;SDS011;35723;51.194;5.112;2023-05-10T04:17:19;34.33;;;17.48;;
49828;SDS011;35723;51.194;5.112;2023-05-10T04:19:45;33.75;;;17.05;;
49828;SDS011;35723;51.194;5.112;2023-05-10T04:22:11;37.47;;;17.95;;
49828;SDS011;35723;51.194;5.112;2023-05-10T04:24:36;33.50;;;17.65;;
49828;SDS011;35723;51.194;5.112;2023-05-10T04:27:02;37.03;;;18.45;;
49828;SDS011;35723;51.194;5.112;2023-05-10T04:29:28;36.80;;;18.73;;
49828;SDS011;35723;51.194;5.112;2023-05-10T04:31:54;39.67;;;20.27;;
49828;SDS011;35723;51.194;5.112;2023-05-10T04:34:20;39.47;;;20.05;;
49828;SDS011;35723;51.194;5.112;2023-05-10T04:36:46;49.85;;;23.63;;
49828;SDS011;35723;51.194;5.112;2023-05-10T04:39:11;42.28;;;23.20;;
49828;SDS011;35723;51.194;5.112;2023-05-10T04:41:38;46.40;;;22.50;;
49828;SDS011;35723;51.194;5.112;2023-05-10T04:44:04;51.08;;;24.77;;
49828;SDS011;35723;51.194;5.112;2023-05-10T04:46:30;50.42;;;25.90;;
49828;SDS011;35723;51.194;5.112;2023-05-10T04:48:55;49.65;;;24.98;;
49828;SDS011;35723;51.194;5.112;2023-05-10T04:51:21;52.13;;;27.20;;
49828;SDS011;35723;51.194;5.112;2023-05-10T04:53:47;49.58;;;26.52;;
49828;SDS011;35723;51.194;5.112;2023-05-10T04:56:12;56.22;;;29.60;;
49828;SDS011;35723;51.194;5.112;2023-05-10T04:58:38;61.15;;;30.70;;
49828;SDS011;35723;51.194;5.112;2023-05-10T05:01:04;57.65;;;30.20;;
49828;SDS011;35723;51.194;5.112;2023-05-10T05:03:32;60.03;;;31.00;;
49828;SDS011;35723;51.194;5.112;2023-05-10T05:05:57;59.03;;;30.17;;
49828;SDS011;35723;51.194;5.112;2023-05-10T05:08:23;53.50;;;28.83;;
49828;SDS011;35723;51.194;5.112;2023-05-10T05:10:49;56.55;;;30.45;;
49828;SDS011;35723;51.194;5.112;2023-05-10T05:13:15;58.78;;;30.08;;
49828;SDS011;35723;51.194;5.112;2023-05-10T05:15:40;55.53;;;30.13;;
49828;SDS011;35723;51.194;5.112;2023-05-10T05:18:06;60.90;;;30.40;;
49828;SDS011;35723;51.194;5.112;2023-05-10T05:20:32;59.28;;;30.98;;
49828;SDS011;35723;51.194;5.112;2023-05-10T05:22:59;59.33;;;29.33;;
49828;SDS011;35723;51.194;5.112;2023-05-10T05:25:24;61.42;;;30.67;;
49828;SDS011;35723;51.194;5.112;2023-05-10T05:27:50;61.75;;;30.30;;
49828;SDS011;35723;51.194;5.112;2023-05-10T05:30:16;61.10;;;29.40;;
49828;SDS011;35723;51.194;5.112;2023-05-10T05:32:41;60.33;;;29.27;;
49828;SDS011;35723;51.194;5.112;2023-05-10T05:35:07;60.28;;;28.52;;
49828;SDS011;35723;51.194;5.112;2023-05-10T05:37:33;55.05;;;28.10;;
49828;SDS011;35723;51.194;5.112;2023-05-10T05:39:59;57.30;;;28.90;;
49828;SDS011;35723;51.194;5.112;2023-05-10T05:42:26;57.35;;;28.23;;
49828;SDS011;35723;51.194;5.112;2023-05-10T05:44:52;58.63;;;28.08;;
49828;SDS011;35723;51.194;5.112;2023-05-10T05:47:18;57.58;;;28.70;;
49828;SDS011;35723;51.194;5.112;2023-05-10T05:49:43;57.33;;;27.55;;
49828;SDS011;35723;51.194;5.112;2023-05-10T05:52:12;60.13;;;27.65;;
49828;SDS011;35723;51.194;5.112;2023-05-10T05:54:37;56.30;;;27.45;;
49828;SDS011;35723;51.194;5.112;2023-05-10T05:57:03;58.72;;;27.35;;
49828;SDS011;35723;51.194;5.112;2023-05-10T05:59:29;51.50;;;25.55;;
49828;SDS011;35723;51.194;5.112;2023-05-10T06:01:54;55.50;;;26.63;;
49828;SDS011;35723;51.194;5.112;2023-05-10T06:04:21;52.78;;;25.95;;
49828;SDS011;35723;51.194;5.112;2023-05-10T06:06:46;54.92;;;26.20;;
49828;SDS011;35723;51.194;5.112;2023-05-10T06:09:12;48.40;;;24.08;;
49828;SDS011;35723;51.194;5.112;2023-05-10T06:11:38;48.17;;;24.33;;
49828;SDS011;35723;51.194;5.112;2023-05-10T06:14:03;51.25;;;24.25;;
49828;SDS011;35723;51.194;5.112;2023-05-10T06:16:31;49.17;;;23.50;;
49828;SDS011;35723;51.194;5.112;2023-05-10T06:18:57;45.10;;;22.73;;
49828;SDS011;35723;51.194;5.112;2023-05-10T06:21:23;48.10;;;24.23;;
49828;SDS011;35723;51.194;5.112;2023-05-10T06:23:48;49.90;;;22.98;;
49828;SDS011;35723;51.194;5.112;2023-05-10T06:26:14;48.78;;;23.65;;
49828;SDS011;35723;51.194;5.112;2023-05-10T06:28:40;47.22;;;22.77;;
49828;SDS011;35723;51.194;5.112;2023-05-10T06:31:06;47.40;;;24.02;;
49828;SDS011;35723;51.194;5.112;2023-05-10T06:33:32;50.88;;;24.05;;
49828;SDS011;35723;51.194;5.112;2023-05-10T06:35:58;51.00;;;23.20;;
49828;SDS011;35723;51.194;5.112;2023-05-10T06:38:24;49.65;;;23.48;;
49828;SDS011;35723;51.194;5.112;2023-05-10T06:40:49;43.67;;;21.40;;
49828;SDS011;35723;51.194;5.112;2023-05-10T06:43:15;46.65;;;22.25;;
49828;SDS011;35723;51.194;5.112;2023-05-10T06:45:41;45.38;;;22.00;;
49828;SDS011;35723;51.194;5.112;2023-05-10T06:48:07;43.83;;;22.17;;
49828;SDS011;35723;51.194;5.112;2023-05-10T06:50:32;41.75;;;21.38;;
49828;SDS011;35723;51.194;5.112;2023-05-10T06:52:59;42.75;;;21.77;;
49828;SDS011;35723;51.194;5.112;2023-05-10T06:55:25;45.60;;;21.75;;
49828;SDS011;35723;51.194;5.112;2023-05-10T06:57:51;46.53;;;21.95;;
49828;SDS011;35723;51.194;5.112;2023-05-10T07:00:18;43.38;;;20.95;;
49828;SDS011;35723;51.194;5.112;2023-05-10T07:02:44;43.47;;;21.05;;
49828;SDS011;35723;51.194;5.112;2023-05-10T07:05:10;39.92;;;20.73;;
49828;SDS011;35723;51.194;5.112;2023-05-10T07:07:36;41.45;;;19.65;;
49828;SDS011;35723;51.194;5.112;2023-05-10T07:10:02;41.28;;;20.45;;
49828;SDS011;35723;51.194;5.112;2023-05-10T07:12:28;36.35;;;19.13;;
49828;SDS011;35723;51.194;5.112;2023-05-10T07:14:53;38.33;;;19.65;;
49828;SDS011;35723;51.194;5.112;2023-05-10T07:17:19;36.00;;;18.10;;
49828;SDS011;35723;51.194;5.112;2023-05-10T07:19:44;30.50;;;16.98;;
49828;SDS011;35723;51.194;5.112;2023-05-10T07:22:10;24.65;;;13.27;;
49828;SDS011;35723;51.194;5.112;2023-05-10T07:24:36;23.92;;;12.93;;
49828;SDS011;35723;51.194;5.112;2023-05-10T07:27:02;23.83;;;12.75;;
49828;SDS011;35723;51.194;5.112;2023-05-10T07:29:27;23.48;;;11.70;;
49828;SDS011;35723;51.194;5.112;2023-05-10T07:31:53;21.95;;;10.43;;
49828;SDS011;35723;51.194;5.112;2023-05-10T07:34:19;20.40;;;10.50;;
49828;SDS011;35723;51.194;5.112;2023-05-10T07:36:45;22.55;;;10.10;;
49828;SDS011;35723;51.194;5.112;2023-05-10T07:39:11;22.77;;;10.13;;
49828;SDS011;35723;51.194;5.112;2023-05-10T07:41:36;20.35;;;9.88;;
49828;SDS011;35723;51.194;5.112;2023-05-10T07:44:03;20.60;;;8.98;;
49828;SDS011;35723;51.194;5.112;2023-05-10T07:46:30;19.58;;;8.80;;
49828;SDS011;35723;51.194;5.112;2023-05-10T07:48:55;19.90;;;8.80;;
49828;SDS011;35723;51.194;5.112;2023-05-10T07:51:21;23.48;;;8.77;;
49828;SDS011;35723;51.194;5.112;2023-05-10T07:53:46;20.25;;;8.80;;
49828;SDS011;35723;51.194;5.112;2023-05-10T07:56:25;17.83;;;8.88;;
49828;SDS011;35723;51.194;5.112;2023-05-10T07:58:54;19.70;;;9.00;;
49828;SDS011;35723;51.194;5.112;2023-05-10T08:01:21;18.52;;;8.05;;
49828;SDS011;35723;51.194;5.112;2023-05-10T08:03:47;18.10;;;8.23;;
49828;SDS011;35723;51.194;5.112;2023-05-10T08:06:17;18.75;;;8.00;;
49828;SDS011;35723;51.194;5.112;2023-05-10T08:08:43;18.08;;;8.10;;
49828;SDS011;35723;51.194;5.112;2023-05-10T08:11:14;20.67;;;8.73;;
49828;SDS011;35723;51.194;5.112;2023-05-10T08:13:42;18.17;;;8.70;;
49828;SDS011;35723;51.194;5.112;2023-05-10T08:16:08;19.52;;;9.55;;
49828;SDS011;35723;51.194;5.112;2023-05-10T08:18:34;22.25;;;11.32;;
49828;SDS011;35723;51.194;5.112;2023-05-10T08:21:00;21.63;;;11.60;;
49828;SDS011;35723;51.194;5.112;2023-05-10T08:23:25;25.40;;;12.30;;
49828;SDS011;35723;51.194;5.112;2023-05-10T08:25:51;26.35;;;12.73;;
49828;SDS011;35723;51.194;5.112;2023-05-10T08:28:17;26.40;;;13.20;;
49828;SDS011;35723;51.194;5.112;2023-05-10T08:30:42;25.95;;;12.73;;
49828;SDS011;35723;51.194;5.112;2023-05-10T08:33:08;26.67;;;13.80;;
49828;SDS011;35723;51.194;5.112;2023-05-10T08:35:33;26.20;;;13.02;;
49828;SDS011;35723;51.194;5.112;2023-05-10T08:38:00;26.42;;;13.65;;
49828;SDS011;35723;51.194;5.112;2023-05-10T08:40:26;24.27;;;12.75;;
49828;SDS011;35723;51.194;5.112;2023-05-10T08:43:05;24.45;;;13.40;;
49828;SDS011;35723;51.194;5.112;2023-05-10T08:45:32;24.48;;;13.40;;
49828;SDS011;35723;51.194;5.112;2023-05-10T08:48:02;33.25;;;18.55;;
49828;SDS011;35723;51.194;5.112;2023-05-10T08:50:31;34.95;;;18.00;;
49828;SDS011;35723;51.194;5.112;2023-05-10T08:53:00;32.55;;;18.70;;
49828;SDS011;35723;51.194;5.112;2023-05-10T08:55:28;34.45;;;20.60;;
49828;SDS011;35723;51.194;5.112;2023-05-10T08:57:55;39.10;;;21.70;;
49828;SDS011;35723;51.194;5.112;2023-05-10T09:00:21;40.63;;;23.00;;
49828;SDS011;35723;51.194;5.112;2023-05-10T09:02:48;38.60;;;23.10;;
49828;SDS011;35723;51.194;5.112;2023-05-10T09:05:15;43.53;;;23.90;;
49828;SDS011;35723;51.194;5.112;2023-05-10T09:07:41;39.03;;;22.10;;
49828;SDS011;35723;51.194;5.112;2023-05-10T09:10:07;38.05;;;22.67;;
49828;SDS011;35723;51.194;5.112;2023-05-10T09:12:34;40.47;;;22.58;;
49828;SDS011;35723;51.194;5.112;2023-05-10T09:15:00;38.13;;;22.00;;
49828;SDS011;35723;51.194;5.112;2023-05-10T09:17:27;39.10;;;22.75;;
49828;SDS011;35723;51.194;5.112;2023-05-10T09:20:01;37.40;;;21.90;;
49828;SDS011;35723;51.194;5.112;2023-05-10T09:22:31;37.22;;;22.45;;
49828;SDS011;35723;51.194;5.112;2023-05-10T09:25:11;37.97;;;22.15;;
49828;SDS011;35723;51.194;5.112;2023-05-10T09:27:43;34.45;;;21.25;;
49828;SDS011;35723;51.194;5.112;2023-05-10T09:30:10;36.58;;;21.52;;
49828;SDS011;35723;51.194;5.112;2023-05-10T09:32:44;34.05;;;20.92;;
49828;SDS011;35723;51.194;5.112;2023-05-10T09:35:14;33.85;;;20.77;;
49828;SDS011;35723;51.194;5.112;2023-05-10T09:37:44;34.70;;;20.45;;
49828;SDS011;35723;51.194;5.112;2023-05-10T09:40:19;33.55;;;20.50;;
49828;SDS011;35723;51.194;5.112;2023-05-10T09:45:29;36.40;;;20.77;;
49828;SDS011;35723;51.194;5.112;2023-05-10T09:47:56;32.80;;;19.98;;
49828;SDS011;35723;51.194;5.112;2023-05-10T09:50:25;32.70;;;20.00;;
49828;SDS011;35723;51.194;5.112;2023-05-10T09:52:53;33.67;;;19.98;;
49828;SDS011;35723;51.194;5.112;2023-05-10T09:55:20;33.85;;;19.77;;
49828;SDS011;35723;51.194;5.112;2023-05-10T09:57:48;33.70;;;19.77;;
49828;SDS011;35723;51.194;5.112;2023-05-10T10:00:18;33.13;;;19.45;;
49828;SDS011;35723;51.194;5.112;2023-05-10T10:02:45;30.40;;;18.00;;
49828;SDS011;35723;51.194;5.112;2023-05-10T10:05:16;31.15;;;17.98;;
49828;SDS011;35723;51.194;5.112;2023-05-10T10:07:41;30.80;;;17.83;;
49828;SDS011;35723;51.194;5.112;2023-05-10T10:10:07;30.52;;;16.90;;
49828;SDS011;35723;51.194;5.112;2023-05-10T10:12:37;29.92;;;17.67;;
49828;SDS011;35723;51.194;5.112;2023-05-10T10:15:04;29.88;;;17.70;;
49828;SDS011;35723;51.194;5.112;2023-05-10T10:17:31;31.95;;;18.80;;
49828;SDS011;35723;51.194;5.112;2023-05-10T10:20:00;30.80;;;18.88;;
49828;SDS011;35723;51.194;5.112;2023-05-10T10:22:28;29.23;;;17.42;;
49828;SDS011;35723;51.194;5.112;2023-05-10T10:24:53;29.45;;;16.48;;
49828;SDS011;35723;51.194;5.112;2023-05-10T10:35:03;34.72;;;18.08;;
49828;SDS011;35723;51.194;5.112;2023-05-10T10:37:46;31.95;;;17.77;;
49828;SDS011;35723;51.194;5.112;2023-05-10T10:40:26;32.22;;;16.48;;
49828;SDS011;35723;51.194;5.112;2023-05-10T10:45:22;30.20;;;15.10;;
49828;SDS011;35723;51.194;5.112;2023-05-10T10:47:53;31.83;;;15.82;;
49828;SDS011;35723;51.194;5.112;2023-05-10T10:50:44;27.27;;;14.90;;
49828;SDS011;35723;51.194;5.112;2023-05-10T10:53:11;27.77;;;14.43;;
49828;SDS011;35723;51.194;5.112;2023-05-10T10:55:45;30.48;;;14.13;;
49828;SDS011;35723;51.194;5.112;2023-05-10T10:58:16;25.17;;;13.57;;
49828;SDS011;35723;51.194;5.112;2023-05-10T11:01:08;25.27;;;13.65;;
49828;SDS011;35723;51.194;5.112;2023-05-10T11:03:38;29.15;;;13.15;;
49828;SDS011;35723;51.194;5.112;2023-05-10T11:06:04;26.00;;;12.65;;
49828;SDS011;35723;51.194;5.112;2023-05-10T11:08:30;29.98;;;14.70;;
49828;SDS011;35723;51.194;5.112;2023-05-10T11:13:27;28.15;;;14.30;;
49828;SDS011;35723;51.194;5.112;2023-05-10T11:16:20;28.05;;;14.18;;
49828;SDS011;35723;51.194;5.112;2023-05-10T11:21:23;25.70;;;13.40;;
49828;SDS011;35723;51.194;5.112;2023-05-10T11:23:55;26.30;;;12.60;;
49828;SDS011;35723;51.194;5.112;2023-05-10T11:28:50;25.83;;;11.05;;
49828;SDS011;35723;51.194;5.112;2023-05-10T11:31:19;20.33;;;9.80;;
49828;SDS011;35723;51.194;5.112;2023-05-10T11:33:45;22.75;;;10.05;;
49828;SDS011;35723;51.194;5.112;2023-05-10T11:36:14;22.27;;;10.88;;
49828;SDS011;35723;51.194;5.112;2023-05-10T11:38:40;22.15;;;10.70;;
49828;SDS011;35723;51.194;5.112;2023-05-10T11:41:08;24.30;;;10.85;;
49828;SDS011;35723;51.194;5.112;2023-05-10T11:43:35;24.35;;;10.95;;
49828;SDS011;35723;51.194;5.112;2023-05-10T11:46:03;21.52;;;11.02;;
49828;SDS011;35723;51.194;5.112;2023-05-10T11:48:30;20.63;;;10.05;;
49828;SDS011;35723;51.194;5.112;2023-05-10T11:50:56;24.13;;;10.38;;
49828;SDS011;35723;51.194;5.112;2023-05-10T11:53:22;21.45;;;10.38;;
49828;SDS011;35723;51.194;5.112;2023-05-10T11:55:50;22.00;;;10.10;;
49828;SDS011;35723;51.194;5.112;2023-05-10T11:58:17;18.27;;;9.00;;
49828;SDS011;35723;51.194;5.112;2023-05-10T12:00:44;21.38;;;10.30;;
49828;SDS011;35723;51.194;5.112;2023-05-10T12:03:10;20.13;;;10.05;;
49828;SDS011;35723;51.194;5.112;2023-05-10T12:05:36;20.50;;;9.70;;
49828;SDS011;35723;51.194;5.112;2023-05-10T12:08:12;20.33;;;9.88;;
49828;SDS011;35723;51.194;5.112;2023-05-10T12:10:45;19.80;;;9.50;;
49828;SDS011;35723;51.194;5.112;2023-05-10T12:13:11;22.20;;;9.95;;
49828;SDS011;35723;51.194;5.112;2023-05-10T12:15:41;21.20;;;8.90;;
49828;SDS011;35723;51.194;5.112;2023-05-10T12:18:08;19.13;;;8.95;;
49828;SDS011;35723;51.194;5.112;2023-05-10T12:20:35;18.17;;;8.75;;
49828;SDS011;35723;51.194;5.112;2023-05-10T12:23:01;19.10;;;8.63;;
49828;SDS011;35723;51.194;5.112;2023-05-10T12:25:35;17.65;;;8.32;;
49828;SDS011;35723;51.194;5.112;2023-05-10T12:30:33;19.55;;;9.30;;
49828;SDS011;35723;51.194;5.112;2023-05-10T12:33:10;18.80;;;9.35;;
49828;SDS011;35723;51.194;5.112;2023-05-10T12:35:44;20.08;;;9.10;;
49828;SDS011;35723;51.194;5.112;2023-05-10T12:40:57;19.10;;;8.60;;
49828;SDS011;35723;51.194;5.112;2023-05-10T12:43:24;19.50;;;9.15;;
49828;SDS011;35723;51.194;5.112;2023-05-10T12:45:49;17.67;;;8.30;;
49828;SDS011;35723;51.194;5.112;2023-05-10T12:48:15;18.15;;;8.10;;
49828;SDS011;35723;51.194;5.112;2023-05-10T12:50:41;18.48;;;8.43;;
49828;SDS011;35723;51.194;5.112;2023-05-10T12:53:06;19.23;;;8.35;;
49828;SDS011;35723;51.194;5.112;2023-05-10T12:55:32;21.50;;;8.38;;
49828;SDS011;35723;51.194;5.112;2023-05-10T12:57:58;17.30;;;8.30;;
49828;SDS011;35723;51.194;5.112;2023-05-10T13:00:23;16.33;;;7.50;;
49828;SDS011;35723;51.194;5.112;2023-05-10T13:02:49;17.42;;;8.13;;
49828;SDS011;35723;51.194;5.112;2023-05-10T13:05:15;16.60;;;7.40;;
49828;SDS011;35723;51.194;5.112;2023-05-10T13:07:40;18.42;;;7.70;;
49828;SDS011;35723;51.194;5.112;2023-05-10T13:10:06;17.23;;;8.00;;
49828;SDS011;35723;51.194;5.112;2023-05-10T13:12:32;18.27;;;7.95;;
49828;SDS011;35723;51.194;5.112;2023-05-10T13:14:58;20.08;;;8.10;;
49828;SDS011;35723;51.194;5.112;2023-05-10T13:17:25;13.82;;;7.22;;
49828;SDS011;35723;51.194;5.112;2023-05-10T13:19:50;17.33;;;8.23;;
49828;SDS011;35723;51.194;5.112;2023-05-10T13:22:16;18.13;;;8.60;;
49828;SDS011;35723;51.194;5.112;2023-05-10T13:24:42;17.30;;;7.72;;
49828;SDS011;35723;51.194;5.112;2023-05-10T13:27:08;18.25;;;7.70;;
49828;SDS011;35723;51.194;5.112;2023-05-10T13:29:33;18.17;;;7.93;;
49828;SDS011;35723;51.194;5.112;2023-05-10T13:31:59;16.23;;;7.53;;
49828;SDS011;35723;51.194;5.112;2023-05-10T13:34:25;17.23;;;7.53;;
49828;SDS011;35723;51.194;5.112;2023-05-10T13:36:51;18.30;;;7.22;;
49828;SDS011;35723;51.194;5.112;2023-05-10T13:39:17;14.73;;;6.70;;
49828;SDS011;35723;51.194;5.112;2023-05-10T13:41:43;16.83;;;6.82;;
49828;SDS011;35723;51.194;5.112;2023-05-10T13:44:09;17.92;;;7.90;;
49828;SDS011;35723;51.194;5.112;2023-05-10T13:46:37;18.20;;;7.78;;
49828;SDS011;35723;51.194;5.112;2023-05-10T13:49:03;16.80;;;7.50;;
49828;SDS011;35723;51.194;5.112;2023-05-10T13:51:29;15.75;;;7.32;;
49828;SDS011;35723;51.194;5.112;2023-05-10T13:53:56;17.10;;;7.90;;
49828;SDS011;35723;51.194;5.112;2023-05-10T13:56:22;17.00;;;7.15;;
49828;SDS011;35723;51.194;5.112;2023-05-10T13:58:48;16.40;;;7.03;;
49828;SDS011;35723;51.194;5.112;2023-05-10T14:01:13;17.65;;;7.88;;
49828;SDS011;35723;51.194;5.112;2023-05-10T14:03:39;20.13;;;8.73;;
49828;SDS011;35723;51.194;5.112;2023-05-10T14:06:05;18.73;;;7.93;;
49828;SDS011;35723;51.194;5.112;2023-05-10T14:08:32;18.25;;;7.70;;
49828;SDS011;35723;51.194;5.112;2023-05-10T14:10:59;19.27;;;7.80;;
49828;SDS011;35723;51.194;5.112;2023-05-10T14:13:24;17.25;;;7.60;;
49828;SDS011;35723;51.194;5.112;2023-05-10T14:15:50;19.05;;;8.23;;
49828;SDS011;35723;51.194;5.112;2023-05-10T14:18:17;14.52;;;6.82;;
49828;SDS011;35723;51.194;5.112;2023-05-10T14:20:43;16.05;;;7.55;;
49828;SDS011;35723;51.194;5.112;2023-05-10T14:23:08;15.05;;;7.38;;
49828;SDS011;35723;51.194;5.112;2023-05-10T14:25:34;19.85;;;7.57;;
49828;SDS011;35723;51.194;5.112;2023-05-10T14:28:00;15.13;;;6.88;;
49828;SDS011;35723;51.194;5.112;2023-05-10T14:30:25;15.73;;;7.22;;
49828;SDS011;35723;51.194;5.112;2023-05-10T14:32:51;17.17;;;7.07;;
49828;SDS011;35723;51.194;5.112;2023-05-10T14:35:18;16.60;;;6.85;;
49828;SDS011;35723;51.194;5.112;2023-05-10T14:37:44;14.55;;;6.40;;
49828;SDS011;35723;51.194;5.112;2023-05-10T14:40:10;14.75;;;6.40;;
49828;SDS011;35723;51.194;5.112;2023-05-10T14:42:37;16.45;;;6.80;;
49828;SDS011;35723;51.194;5.112;2023-05-10T14:45:03;16.90;;;7.10;;
49828;SDS011;35723;51.194;5.112;2023-05-10T14:47:29;14.63;;;6.70;;
49828;SDS011;35723;51.194;5.112;2023-05-10T14:49:55;15.52;;;6.45;;
49828;SDS011;35723;51.194;5.112;2023-05-10T14:52:20;14.77;;;6.28;;
49828;SDS011;35723;51.194;5.112;2023-05-10T14:54:46;16.15;;;6.72;;
49828;SDS011;35723;51.194;5.112;2023-05-10T14:57:12;21.13;;;7.13;;
49828;SDS011;35723;51.194;5.112;2023-05-10T14:59:38;13.80;;;6.40;;
49828;SDS011;35723;51.194;5.112;2023-05-10T15:02:04;16.13;;;6.68;;
49828;SDS011;35723;51.194;5.112;2023-05-10T15:04:30;14.82;;;6.80;;
49828;SDS011;35723;51.194;5.112;2023-05-10T15:06:56;18.52;;;6.35;;
49828;SDS011;35723;51.194;5.112;2023-05-10T15:09:24;13.38;;;6.68;;
49828;SDS011;35723;51.194;5.112;2023-05-10T15:11:50;14.30;;;6.40;;